<?xml version="1.0" encoding="UTF-8" standalone="no" ?>
<gpx xmlns="http://www.topografix.com/GPX/1/1" xmlns:xsi="http://www.w3.org/2001/XMLSchema-instance" xsi:schemaLocation="http://www.topografix.com/GPX/1/1 http://www.topografix.com/GPX/1/1/gpx.xsd" version="1.1" creator="VisuGPX - https://www.visugpx.com">
  <metadata>
    <name>bollene-2013</name>
    <desc><![CDATA[rando 40 kms du Lez à Bollene]]></desc>
  </metadata>
  <trk>
    <name><![CDATA[bollene-2013]]></name>
    <trkseg>
      <trkpt lat="44.29574" lon="4.75257">
        <ele>66</ele>
        <time>2013-10-27T06:54:06Z</time>
      </trkpt>
      <trkpt lat="44.29834" lon="4.75036">
        <ele>61</ele>
        <time>2013-10-27T06:55:11Z</time>
      </trkpt>
      <trkpt lat="44.29885" lon="4.75026">
        <ele>60</ele>
        <time>2013-10-27T06:55:23Z</time>
      </trkpt>
      <trkpt lat="44.29906" lon="4.74968">
        <ele>60</ele>
        <time>2013-10-27T06:55:33Z</time>
      </trkpt>
      <trkpt lat="44.29982" lon="4.74908">
        <ele>62</ele>
        <time>2013-10-27T06:55:54Z</time>
      </trkpt>
      <trkpt lat="44.29977" lon="4.74991">
        <ele>60</ele>
        <time>2013-10-27T06:56:09Z</time>
      </trkpt>
      <trkpt lat="44.30009" lon="4.75114">
        <ele>62</ele>
        <time>2013-10-27T06:56:30Z</time>
      </trkpt>
      <trkpt lat="44.30027" lon="4.753">
        <ele>63</ele>
        <time>2013-10-27T06:57:00Z</time>
      </trkpt>
      <trkpt lat="44.3005" lon="4.75358">
        <ele>63</ele>
        <time>2013-10-27T06:57:14Z</time>
      </trkpt>
      <trkpt lat="44.30078" lon="4.75365">
        <ele>63</ele>
        <time>2013-10-27T06:57:23Z</time>
      </trkpt>
      <trkpt lat="44.30134" lon="4.75425">
        <ele>63</ele>
        <time>2013-10-27T06:57:40Z</time>
      </trkpt>
      <trkpt lat="44.30218" lon="4.75425">
        <ele>65</ele>
        <time>2013-10-27T06:58:02Z</time>
      </trkpt>
      <trkpt lat="44.30218" lon="4.7532">
        <ele>65</ele>
        <time>2013-10-27T06:58:21Z</time>
      </trkpt>
      <trkpt lat="44.30233" lon="4.75287">
        <ele>65</ele>
        <time>2013-10-27T06:58:27Z</time>
      </trkpt>
      <trkpt lat="44.3034" lon="4.75283">
        <ele>69</ele>
        <time>2013-10-27T06:58:54Z</time>
      </trkpt>
      <trkpt lat="44.30447" lon="4.753">
        <ele>74</ele>
        <time>2013-10-27T06:59:28Z</time>
      </trkpt>
      <trkpt lat="44.30561" lon="4.75339">
        <ele>86</ele>
        <time>2013-10-27T07:00:10Z</time>
      </trkpt>
      <trkpt lat="44.30638" lon="4.75337">
        <ele>90</ele>
        <time>2013-10-27T07:00:35Z</time>
      </trkpt>
      <trkpt lat="44.30683" lon="4.7536">
        <ele>93</ele>
        <time>2013-10-27T07:00:59Z</time>
      </trkpt>
      <trkpt lat="44.30726" lon="4.75363">
        <ele>95</ele>
        <time>2013-10-27T07:01:15Z</time>
      </trkpt>
      <trkpt lat="44.30868" lon="4.7547">
        <ele>111</ele>
        <time>2013-10-27T07:02:36Z</time>
      </trkpt>
      <trkpt lat="44.31018" lon="4.75521">
        <ele>121</ele>
        <time>2013-10-27T07:03:38Z</time>
      </trkpt>
      <trkpt lat="44.31044" lon="4.75558">
        <ele>124</ele>
        <time>2013-10-27T07:03:58Z</time>
      </trkpt>
      <trkpt lat="44.31363" lon="4.75702">
        <ele>149</ele>
        <time>2013-10-27T07:06:20Z</time>
      </trkpt>
      <trkpt lat="44.31617" lon="4.75899">
        <ele>179</ele>
        <time>2013-10-27T07:09:09Z</time>
      </trkpt>
      <trkpt lat="44.31668" lon="4.75914">
        <ele>185</ele>
        <time>2013-10-27T07:09:50Z</time>
      </trkpt>
      <trkpt lat="44.31606" lon="4.75927">
        <ele>185</ele>
        <time>2013-10-27T07:10:25Z</time>
      </trkpt>
      <trkpt lat="44.31488" lon="4.75897">
        <ele>177</ele>
        <time>2013-10-27T07:11:04Z</time>
      </trkpt>
      <trkpt lat="44.31567" lon="4.75959">
        <ele>191</ele>
        <time>2013-10-27T07:11:54Z</time>
      </trkpt>
      <trkpt lat="44.31443" lon="4.7591">
        <ele>179</ele>
        <time>2013-10-27T07:12:38Z</time>
      </trkpt>
      <trkpt lat="44.31372" lon="4.75936">
        <ele>196</ele>
        <time>2013-10-27T07:12:56Z</time>
      </trkpt>
      <trkpt lat="44.3131" lon="4.75895">
        <ele>182</ele>
        <time>2013-10-27T07:13:11Z</time>
      </trkpt>
      <trkpt lat="44.3125" lon="4.7588">
        <ele>181</ele>
        <time>2013-10-27T07:13:27Z</time>
      </trkpt>
      <trkpt lat="44.31194" lon="4.75978">
        <ele>188</ele>
        <time>2013-10-27T07:13:57Z</time>
      </trkpt>
      <trkpt lat="44.31102" lon="4.76008">
        <ele>181</ele>
        <time>2013-10-27T07:14:39Z</time>
      </trkpt>
      <trkpt lat="44.31039" lon="4.76081">
        <ele>176</ele>
        <time>2013-10-27T07:15:07Z</time>
      </trkpt>
      <trkpt lat="44.30947" lon="4.76105">
        <ele>169</ele>
        <time>2013-10-27T07:15:41Z</time>
      </trkpt>
      <trkpt lat="44.30913" lon="4.76101">
        <ele>165</ele>
        <time>2013-10-27T07:15:53Z</time>
      </trkpt>
      <trkpt lat="44.30904" lon="4.76071">
        <ele>166</ele>
        <time>2013-10-27T07:16:03Z</time>
      </trkpt>
      <trkpt lat="44.30876" lon="4.76062">
        <ele>162</ele>
        <time>2013-10-27T07:16:13Z</time>
      </trkpt>
      <trkpt lat="44.30879" lon="4.76092">
        <ele>162</ele>
        <time>2013-10-27T07:16:26Z</time>
      </trkpt>
      <trkpt lat="44.30859" lon="4.76116">
        <ele>159</ele>
        <time>2013-10-27T07:16:38Z</time>
      </trkpt>
      <trkpt lat="44.30883" lon="4.76176">
        <ele>153</ele>
        <time>2013-10-27T07:17:00Z</time>
      </trkpt>
      <trkpt lat="44.30921" lon="4.76219">
        <ele>161</ele>
        <time>2013-10-27T07:17:22Z</time>
      </trkpt>
      <trkpt lat="44.30939" lon="4.76212">
        <ele>162</ele>
        <time>2013-10-27T07:17:52Z</time>
      </trkpt>
      <trkpt lat="44.30945" lon="4.76182">
        <ele>163</ele>
        <time>2013-10-27T07:18:12Z</time>
      </trkpt>
      <trkpt lat="44.3099" lon="4.76131">
        <ele>170</ele>
        <time>2013-10-27T07:18:48Z</time>
      </trkpt>
      <trkpt lat="44.31035" lon="4.76116">
        <ele>175</ele>
        <time>2013-10-27T07:19:18Z</time>
      </trkpt>
      <trkpt lat="44.31044" lon="4.76124">
        <ele>175</ele>
        <time>2013-10-27T07:19:24Z</time>
      </trkpt>
      <trkpt lat="44.31119" lon="4.76335">
        <ele>169</ele>
        <time>2013-10-27T07:20:19Z</time>
      </trkpt>
      <trkpt lat="44.31157" lon="4.76395">
        <ele>169</ele>
        <time>2013-10-27T07:20:35Z</time>
      </trkpt>
      <trkpt lat="44.3123" lon="4.76395">
        <ele>174</ele>
        <time>2013-10-27T07:21:10Z</time>
      </trkpt>
      <trkpt lat="44.31127" lon="4.76165">
        <ele>183</ele>
        <time>2013-10-27T07:22:49Z</time>
      </trkpt>
      <trkpt lat="44.31127" lon="4.76126">
        <ele>183</ele>
        <time>2013-10-27T07:22:58Z</time>
      </trkpt>
      <trkpt lat="44.31155" lon="4.76086">
        <ele>187</ele>
        <time>2013-10-27T07:23:18Z</time>
      </trkpt>
      <trkpt lat="44.3113" lon="4.7612">
        <ele>183</ele>
        <time>2013-10-27T07:23:32Z</time>
      </trkpt>
      <trkpt lat="44.31138" lon="4.76182">
        <ele>182</ele>
        <time>2013-10-27T07:23:47Z</time>
      </trkpt>
      <trkpt lat="44.31177" lon="4.76242">
        <ele>187</ele>
        <time>2013-10-27T07:24:01Z</time>
      </trkpt>
      <trkpt lat="44.31207" lon="4.76337">
        <ele>177</ele>
        <time>2013-10-27T07:24:14Z</time>
      </trkpt>
      <trkpt lat="44.31271" lon="4.76386">
        <ele>177</ele>
        <time>2013-10-27T07:24:32Z</time>
      </trkpt>
      <trkpt lat="44.31344" lon="4.76386">
        <ele>174</ele>
        <time>2013-10-27T07:24:56Z</time>
      </trkpt>
      <trkpt lat="44.31413" lon="4.76337">
        <ele>178</ele>
        <time>2013-10-27T07:26:34Z</time>
      </trkpt>
      <trkpt lat="44.31441" lon="4.76332">
        <ele>187</ele>
        <time>2013-10-27T07:26:42Z</time>
      </trkpt>
      <trkpt lat="44.31608" lon="4.76388">
        <ele>184</ele>
        <time>2013-10-27T07:27:38Z</time>
      </trkpt>
      <trkpt lat="44.31793" lon="4.76352">
        <ele>193</ele>
        <time>2013-10-27T07:28:28Z</time>
      </trkpt>
      <trkpt lat="44.31831" lon="4.76463">
        <ele>176</ele>
        <time>2013-10-27T07:28:48Z</time>
      </trkpt>
      <trkpt lat="44.31919" lon="4.76487">
        <ele>191</ele>
        <time>2013-10-27T07:29:09Z</time>
      </trkpt>
      <trkpt lat="44.31919" lon="4.76506">
        <ele>186</ele>
        <time>2013-10-27T07:29:14Z</time>
      </trkpt>
      <trkpt lat="44.31853" lon="4.76545">
        <ele>177</ele>
        <time>2013-10-27T07:29:28Z</time>
      </trkpt>
      <trkpt lat="44.31836" lon="4.76596">
        <ele>179</ele>
        <time>2013-10-27T07:29:40Z</time>
      </trkpt>
      <trkpt lat="44.31814" lon="4.76609">
        <ele>178</ele>
        <time>2013-10-27T07:30:03Z</time>
      </trkpt>
      <trkpt lat="44.31829" lon="4.76656">
        <ele>183</ele>
        <time>2013-10-27T07:30:32Z</time>
      </trkpt>
      <trkpt lat="44.31803" lon="4.76669">
        <ele>184</ele>
        <time>2013-10-27T07:31:12Z</time>
      </trkpt>
      <trkpt lat="44.31801" lon="4.76691">
        <ele>184</ele>
        <time>2013-10-27T07:31:17Z</time>
      </trkpt>
      <trkpt lat="44.3187" lon="4.76768">
        <ele>198</ele>
        <time>2013-10-27T07:31:46Z</time>
      </trkpt>
      <trkpt lat="44.31812" lon="4.76845">
        <ele>194</ele>
        <time>2013-10-27T07:32:14Z</time>
      </trkpt>
      <trkpt lat="44.31763" lon="4.76841">
        <ele>189</ele>
        <time>2013-10-27T07:32:28Z</time>
      </trkpt>
      <trkpt lat="44.31737" lon="4.7686">
        <ele>195</ele>
        <time>2013-10-27T07:32:37Z</time>
      </trkpt>
      <trkpt lat="44.31649" lon="4.76785">
        <ele>183</ele>
        <time>2013-10-27T07:33:12Z</time>
      </trkpt>
      <trkpt lat="44.31507" lon="4.76744">
        <ele>180</ele>
        <time>2013-10-27T07:33:43Z</time>
      </trkpt>
      <trkpt lat="44.31415" lon="4.76794">
        <ele>173</ele>
        <time>2013-10-27T07:34:03Z</time>
      </trkpt>
      <trkpt lat="44.31361" lon="4.76899">
        <ele>177</ele>
        <time>2013-10-27T07:34:21Z</time>
      </trkpt>
      <trkpt lat="44.31243" lon="4.76865">
        <ele>155</ele>
        <time>2013-10-27T07:34:42Z</time>
      </trkpt>
      <trkpt lat="44.31245" lon="4.76931">
        <ele>160</ele>
        <time>2013-10-27T07:34:57Z</time>
      </trkpt>
      <trkpt lat="44.3113" lon="4.77023">
        <ele>150</ele>
        <time>2013-10-27T07:35:20Z</time>
      </trkpt>
      <trkpt lat="44.31082" lon="4.77041">
        <ele>140</ele>
        <time>2013-10-27T07:35:33Z</time>
      </trkpt>
      <trkpt lat="44.31117" lon="4.77045">
        <ele>150</ele>
        <time>2013-10-27T07:36:01Z</time>
      </trkpt>
      <trkpt lat="44.31155" lon="4.77084">
        <ele>156</ele>
        <time>2013-10-27T07:36:25Z</time>
      </trkpt>
      <trkpt lat="44.31117" lon="4.77345">
        <ele>143</ele>
        <time>2013-10-27T07:37:25Z</time>
      </trkpt>
      <trkpt lat="44.3116" lon="4.77408">
        <ele>142</ele>
        <time>2013-10-27T07:37:40Z</time>
      </trkpt>
      <trkpt lat="44.31207" lon="4.77429">
        <ele>141</ele>
        <time>2013-10-27T07:37:59Z</time>
      </trkpt>
      <trkpt lat="44.31209" lon="4.77444">
        <ele>140</ele>
        <time>2013-10-27T07:38:02Z</time>
      </trkpt>
      <trkpt lat="44.3119" lon="4.7748">
        <ele>135</ele>
        <time>2013-10-27T07:38:13Z</time>
      </trkpt>
      <trkpt lat="44.31112" lon="4.7753">
        <ele>122</ele>
        <time>2013-10-27T07:38:41Z</time>
      </trkpt>
      <trkpt lat="44.31074" lon="4.77575">
        <ele>113</ele>
        <time>2013-10-27T07:39:02Z</time>
      </trkpt>
      <trkpt lat="44.31149" lon="4.77541">
        <ele>123</ele>
        <time>2013-10-27T07:39:38Z</time>
      </trkpt>
      <trkpt lat="44.31254" lon="4.77526">
        <ele>141</ele>
        <time>2013-10-27T07:41:01Z</time>
      </trkpt>
      <trkpt lat="44.31344" lon="4.77487">
        <ele>154</ele>
        <time>2013-10-27T07:42:36Z</time>
      </trkpt>
      <trkpt lat="44.31361" lon="4.77508">
        <ele>156</ele>
        <time>2013-10-27T07:43:22Z</time>
      </trkpt>
      <trkpt lat="44.31404" lon="4.77425">
        <ele>163</ele>
        <time>2013-10-27T07:45:51Z</time>
      </trkpt>
      <trkpt lat="44.31396" lon="4.77384">
        <ele>167</ele>
        <time>2013-10-27T07:46:16Z</time>
      </trkpt>
      <trkpt lat="44.31505" lon="4.77365">
        <ele>197</ele>
        <time>2013-10-27T07:48:00Z</time>
      </trkpt>
      <trkpt lat="44.31486" lon="4.77435">
        <ele>183</ele>
        <time>2013-10-27T07:48:22Z</time>
      </trkpt>
      <trkpt lat="44.31462" lon="4.77448">
        <ele>181</ele>
        <time>2013-10-27T07:48:28Z</time>
      </trkpt>
      <trkpt lat="44.31409" lon="4.77526">
        <ele>163</ele>
        <time>2013-10-27T07:48:42Z</time>
      </trkpt>
      <trkpt lat="44.31447" lon="4.77629">
        <ele>175</ele>
        <time>2013-10-27T07:49:05Z</time>
      </trkpt>
      <trkpt lat="44.31387" lon="4.77875">
        <ele>134</ele>
        <time>2013-10-27T07:50:00Z</time>
      </trkpt>
      <trkpt lat="44.31426" lon="4.7795">
        <ele>137</ele>
        <time>2013-10-27T07:50:23Z</time>
      </trkpt>
      <trkpt lat="44.31378" lon="4.78122">
        <ele>132</ele>
        <time>2013-10-27T07:50:45Z</time>
      </trkpt>
      <trkpt lat="44.31404" lon="4.78195">
        <ele>133</ele>
        <time>2013-10-27T07:51:01Z</time>
      </trkpt>
      <trkpt lat="44.31421" lon="4.78212">
        <ele>142</ele>
        <time>2013-10-27T07:51:08Z</time>
      </trkpt>
      <trkpt lat="44.31464" lon="4.78176">
        <ele>145</ele>
        <time>2013-10-27T07:51:42Z</time>
      </trkpt>
      <trkpt lat="44.31494" lon="4.78124">
        <ele>147</ele>
        <time>2013-10-27T07:52:54Z</time>
      </trkpt>
      <trkpt lat="44.31499" lon="4.78219">
        <ele>147</ele>
        <time>2013-10-27T07:55:36Z</time>
      </trkpt>
      <trkpt lat="44.31507" lon="4.78249">
        <ele>152</ele>
        <time>2013-10-27T07:55:42Z</time>
      </trkpt>
      <trkpt lat="44.31546" lon="4.78289">
        <ele>152</ele>
        <time>2013-10-27T07:55:57Z</time>
      </trkpt>
      <trkpt lat="44.31604" lon="4.78296">
        <ele>156</ele>
        <time>2013-10-27T07:56:21Z</time>
      </trkpt>
      <trkpt lat="44.31615" lon="4.7827">
        <ele>159</ele>
        <time>2013-10-27T07:57:11Z</time>
      </trkpt>
      <trkpt lat="44.31685" lon="4.78292">
        <ele>161</ele>
        <time>2013-10-27T07:57:58Z</time>
      </trkpt>
      <trkpt lat="44.31748" lon="4.78283">
        <ele>164</ele>
        <time>2013-10-27T07:58:11Z</time>
      </trkpt>
      <trkpt lat="44.31756" lon="4.78307">
        <ele>173</ele>
        <time>2013-10-27T07:58:17Z</time>
      </trkpt>
      <trkpt lat="44.31733" lon="4.78388">
        <ele>153</ele>
        <time>2013-10-27T07:58:56Z</time>
      </trkpt>
      <trkpt lat="44.31786" lon="4.78461">
        <ele>171</ele>
        <time>2013-10-27T08:00:12Z</time>
      </trkpt>
      <trkpt lat="44.31786" lon="4.78553">
        <ele>170</ele>
        <time>2013-10-27T08:01:33Z</time>
      </trkpt>
      <trkpt lat="44.31771" lon="4.78577">
        <ele>167</ele>
        <time>2013-10-27T08:01:51Z</time>
      </trkpt>
      <trkpt lat="44.31816" lon="4.78613">
        <ele>169</ele>
        <time>2013-10-27T08:02:19Z</time>
      </trkpt>
      <trkpt lat="44.31846" lon="4.78568">
        <ele>180</ele>
        <time>2013-10-27T08:02:50Z</time>
      </trkpt>
      <trkpt lat="44.31932" lon="4.78525">
        <ele>180</ele>
        <time>2013-10-27T08:03:47Z</time>
      </trkpt>
      <trkpt lat="44.31975" lon="4.78452">
        <ele>192</ele>
        <time>2013-10-27T08:04:22Z</time>
      </trkpt>
      <trkpt lat="44.32003" lon="4.78433">
        <ele>192</ele>
        <time>2013-10-27T08:04:32Z</time>
      </trkpt>
      <trkpt lat="44.32074" lon="4.78427">
        <ele>195</ele>
        <time>2013-10-27T08:04:52Z</time>
      </trkpt>
      <trkpt lat="44.32026" lon="4.78382">
        <ele>202</ele>
        <time>2013-10-27T08:05:25Z</time>
      </trkpt>
      <trkpt lat="44.31934" lon="4.7844">
        <ele>196</ele>
        <time>2013-10-27T08:06:10Z</time>
      </trkpt>
      <trkpt lat="44.31904" lon="4.78448">
        <ele>194</ele>
        <time>2013-10-27T08:06:26Z</time>
      </trkpt>
      <trkpt lat="44.31898" lon="4.78435">
        <ele>196</ele>
        <time>2013-10-27T08:06:37Z</time>
      </trkpt>
      <trkpt lat="44.31928" lon="4.78324">
        <ele>211</ele>
        <time>2013-10-27T08:12:22Z</time>
      </trkpt>
      <trkpt lat="44.31954" lon="4.78302">
        <ele>212</ele>
        <time>2013-10-27T08:12:41Z</time>
      </trkpt>
      <trkpt lat="44.31951" lon="4.78274">
        <ele>214</ele>
        <time>2013-10-27T08:12:51Z</time>
      </trkpt>
      <trkpt lat="44.32001" lon="4.78259">
        <ele>216</ele>
        <time>2013-10-27T08:13:08Z</time>
      </trkpt>
      <trkpt lat="44.32042" lon="4.78268">
        <ele>213</ele>
        <time>2013-10-27T08:13:24Z</time>
      </trkpt>
      <trkpt lat="44.32076" lon="4.78223">
        <ele>219</ele>
        <time>2013-10-27T08:13:45Z</time>
      </trkpt>
      <trkpt lat="44.32102" lon="4.78231">
        <ele>218</ele>
        <time>2013-10-27T08:14:08Z</time>
      </trkpt>
      <trkpt lat="44.32112" lon="4.78221">
        <ele>219</ele>
        <time>2013-10-27T08:14:47Z</time>
      </trkpt>
      <trkpt lat="44.32102" lon="4.78236">
        <ele>218</ele>
        <time>2013-10-27T08:15:23Z</time>
      </trkpt>
      <trkpt lat="44.3211" lon="4.78221">
        <ele>219</ele>
        <time>2013-10-27T08:16:05Z</time>
      </trkpt>
      <trkpt lat="44.3214" lon="4.78229">
        <ele>219</ele>
        <time>2013-10-27T08:16:19Z</time>
      </trkpt>
      <trkpt lat="44.3211" lon="4.78169">
        <ele>221</ele>
        <time>2013-10-27T08:17:53Z</time>
      </trkpt>
      <trkpt lat="44.3208" lon="4.78159">
        <ele>224</ele>
        <time>2013-10-27T08:18:16Z</time>
      </trkpt>
      <trkpt lat="44.32059" lon="4.78015">
        <ele>229</ele>
        <time>2013-10-27T08:19:13Z</time>
      </trkpt>
      <trkpt lat="44.32074" lon="4.78008">
        <ele>228</ele>
        <time>2013-10-27T08:19:18Z</time>
      </trkpt>
      <trkpt lat="44.32127" lon="4.78047">
        <ele>225</ele>
        <time>2013-10-27T08:19:29Z</time>
      </trkpt>
      <trkpt lat="44.32162" lon="4.78041">
        <ele>224</ele>
        <time>2013-10-27T08:19:33Z</time>
      </trkpt>
      <trkpt lat="44.32215" lon="4.78064">
        <ele>222</ele>
        <time>2013-10-27T08:19:42Z</time>
      </trkpt>
      <trkpt lat="44.32284" lon="4.78071">
        <ele>219</ele>
        <time>2013-10-27T08:19:56Z</time>
      </trkpt>
      <trkpt lat="44.3234" lon="4.78058">
        <ele>215</ele>
        <time>2013-10-27T08:20:17Z</time>
      </trkpt>
      <trkpt lat="44.32372" lon="4.78025">
        <ele>215</ele>
        <time>2013-10-27T08:20:23Z</time>
      </trkpt>
      <trkpt lat="44.32417" lon="4.78017">
        <ele>213</ele>
        <time>2013-10-27T08:20:29Z</time>
      </trkpt>
      <trkpt lat="44.32413" lon="4.77944">
        <ele>220</ele>
        <time>2013-10-27T08:21:00Z</time>
      </trkpt>
      <trkpt lat="44.32449" lon="4.77916">
        <ele>226</ele>
        <time>2013-10-27T08:21:21Z</time>
      </trkpt>
      <trkpt lat="44.3249" lon="4.77929">
        <ele>223</ele>
        <time>2013-10-27T08:21:49Z</time>
      </trkpt>
      <trkpt lat="44.32503" lon="4.77905">
        <ele>228</ele>
        <time>2013-10-27T08:22:04Z</time>
      </trkpt>
      <trkpt lat="44.32533" lon="4.7762">
        <ele>251</ele>
        <time>2013-10-27T08:24:16Z</time>
      </trkpt>
      <trkpt lat="44.32627" lon="4.77586">
        <ele>249</ele>
        <time>2013-10-27T08:24:56Z</time>
      </trkpt>
      <trkpt lat="44.3269" lon="4.77538">
        <ele>253</ele>
        <time>2013-10-27T08:25:24Z</time>
      </trkpt>
      <trkpt lat="44.32655" lon="4.77448">
        <ele>268</ele>
        <time>2013-10-27T08:26:29Z</time>
      </trkpt>
      <trkpt lat="44.32597" lon="4.77403">
        <ele>276</ele>
        <time>2013-10-27T08:27:25Z</time>
      </trkpt>
      <trkpt lat="44.32526" lon="4.77313">
        <ele>282</ele>
        <time>2013-10-27T08:28:22Z</time>
      </trkpt>
      <trkpt lat="44.32426" lon="4.77077">
        <ele>291</ele>
        <time>2013-10-27T08:29:48Z</time>
      </trkpt>
      <trkpt lat="44.32385" lon="4.76955">
        <ele>287</ele>
        <time>2013-10-27T08:32:04Z</time>
      </trkpt>
      <trkpt lat="44.32391" lon="4.76918">
        <ele>286</ele>
        <time>2013-10-27T08:32:09Z</time>
      </trkpt>
      <trkpt lat="44.32419" lon="4.76886">
        <ele>285</ele>
        <time>2013-10-27T08:32:18Z</time>
      </trkpt>
      <trkpt lat="44.32393" lon="4.76841">
        <ele>280</ele>
        <time>2013-10-27T08:32:25Z</time>
      </trkpt>
      <trkpt lat="44.32391" lon="4.76772">
        <ele>276</ele>
        <time>2013-10-27T08:32:34Z</time>
      </trkpt>
      <trkpt lat="44.32335" lon="4.7665">
        <ele>277</ele>
        <time>2013-10-27T08:32:55Z</time>
      </trkpt>
      <trkpt lat="44.32355" lon="4.76584">
        <ele>278</ele>
        <time>2013-10-27T08:33:08Z</time>
      </trkpt>
      <trkpt lat="44.32372" lon="4.76566">
        <ele>281</ele>
        <time>2013-10-27T08:33:14Z</time>
      </trkpt>
      <trkpt lat="44.3246" lon="4.76547">
        <ele>282</ele>
        <time>2013-10-27T08:33:35Z</time>
      </trkpt>
      <trkpt lat="44.32606" lon="4.76551">
        <ele>281</ele>
        <time>2013-10-27T08:34:00Z</time>
      </trkpt>
      <trkpt lat="44.32702" lon="4.76579">
        <ele>279</ele>
        <time>2013-10-27T08:34:18Z</time>
      </trkpt>
      <trkpt lat="44.32681" lon="4.76435">
        <ele>282</ele>
        <time>2013-10-27T08:35:01Z</time>
      </trkpt>
      <trkpt lat="44.32617" lon="4.76332">
        <ele>274</ele>
        <time>2013-10-27T08:35:23Z</time>
      </trkpt>
      <trkpt lat="44.32569" lon="4.76202">
        <ele>275</ele>
        <time>2013-10-27T08:35:41Z</time>
      </trkpt>
      <trkpt lat="44.32492" lon="4.76139">
        <ele>282</ele>
        <time>2013-10-27T08:36:13Z</time>
      </trkpt>
      <trkpt lat="44.32507" lon="4.76131">
        <ele>274</ele>
        <time>2013-10-27T08:39:28Z</time>
      </trkpt>
      <trkpt lat="44.32496" lon="4.76139">
        <ele>282</ele>
        <time>2013-10-27T08:39:53Z</time>
      </trkpt>
      <trkpt lat="44.32509" lon="4.76172">
        <ele>280</ele>
        <time>2013-10-27T08:40:57Z</time>
      </trkpt>
      <trkpt lat="44.32488" lon="4.76144">
        <ele>282</ele>
        <time>2013-10-27T08:44:31Z</time>
      </trkpt>
      <trkpt lat="44.32505" lon="4.76152">
        <ele>277</ele>
        <time>2013-10-27T08:44:54Z</time>
      </trkpt>
      <trkpt lat="44.3255" lon="4.76118">
        <ele>270</ele>
        <time>2013-10-27T08:47:49Z</time>
      </trkpt>
      <trkpt lat="44.32533" lon="4.76054">
        <ele>264</ele>
        <time>2013-10-27T08:48:04Z</time>
      </trkpt>
      <trkpt lat="44.32552" lon="4.76026">
        <ele>260</ele>
        <time>2013-10-27T08:48:16Z</time>
      </trkpt>
      <trkpt lat="44.32554" lon="4.75987">
        <ele>250</ele>
        <time>2013-10-27T08:48:25Z</time>
      </trkpt>
      <trkpt lat="44.32621" lon="4.75946">
        <ele>236</ele>
        <time>2013-10-27T08:48:48Z</time>
      </trkpt>
      <trkpt lat="44.32627" lon="4.75899">
        <ele>228</ele>
        <time>2013-10-27T08:49:06Z</time>
      </trkpt>
      <trkpt lat="44.32589" lon="4.75865">
        <ele>227</ele>
        <time>2013-10-27T08:49:32Z</time>
      </trkpt>
      <trkpt lat="44.32548" lon="4.75865">
        <ele>231</ele>
        <time>2013-10-27T08:49:48Z</time>
      </trkpt>
      <trkpt lat="44.3246" lon="4.75882">
        <ele>227</ele>
        <time>2013-10-27T08:50:26Z</time>
      </trkpt>
      <trkpt lat="44.32327" lon="4.75953">
        <ele>243</ele>
        <time>2013-10-27T08:51:15Z</time>
      </trkpt>
      <trkpt lat="44.32297" lon="4.75948">
        <ele>245</ele>
        <time>2013-10-27T08:51:24Z</time>
      </trkpt>
      <trkpt lat="44.32273" lon="4.75888">
        <ele>228</ele>
        <time>2013-10-27T08:51:41Z</time>
      </trkpt>
      <trkpt lat="44.32196" lon="4.7583">
        <ele>232</ele>
        <time>2013-10-27T08:52:22Z</time>
      </trkpt>
      <trkpt lat="44.32121" lon="4.75794">
        <ele>242</ele>
        <time>2013-10-27T08:53:01Z</time>
      </trkpt>
      <trkpt lat="44.32072" lon="4.758">
        <ele>249</ele>
        <time>2013-10-27T08:53:26Z</time>
      </trkpt>
      <trkpt lat="44.32054" lon="4.75777">
        <ele>246</ele>
        <time>2013-10-27T08:53:41Z</time>
      </trkpt>
      <trkpt lat="44.3199" lon="4.75749">
        <ele>245</ele>
        <time>2013-10-27T08:54:11Z</time>
      </trkpt>
      <trkpt lat="44.31988" lon="4.75727">
        <ele>243</ele>
        <time>2013-10-27T08:54:19Z</time>
      </trkpt>
      <trkpt lat="44.31958" lon="4.75717">
        <ele>245</ele>
        <time>2013-10-27T08:54:39Z</time>
      </trkpt>
      <trkpt lat="44.31956" lon="4.75667">
        <ele>239</ele>
        <time>2013-10-27T08:55:14Z</time>
      </trkpt>
      <trkpt lat="44.31939" lon="4.75644">
        <ele>222</ele>
        <time>2013-10-27T08:55:34Z</time>
      </trkpt>
      <trkpt lat="44.31904" lon="4.75631">
        <ele>232</ele>
        <time>2013-10-27T08:55:56Z</time>
      </trkpt>
      <trkpt lat="44.31814" lon="4.75633">
        <ele>236</ele>
        <time>2013-10-27T08:56:31Z</time>
      </trkpt>
      <trkpt lat="44.31758" lon="4.75594">
        <ele>229</ele>
        <time>2013-10-27T08:56:48Z</time>
      </trkpt>
      <trkpt lat="44.31709" lon="4.75594">
        <ele>224</ele>
        <time>2013-10-27T08:57:03Z</time>
      </trkpt>
      <trkpt lat="44.3167" lon="4.75654">
        <ele>222</ele>
        <time>2013-10-27T08:57:22Z</time>
      </trkpt>
      <trkpt lat="44.31698" lon="4.75678">
        <ele>225</ele>
        <time>2013-10-27T08:57:34Z</time>
      </trkpt>
      <trkpt lat="44.31728" lon="4.75684">
        <ele>230</ele>
        <time>2013-10-27T08:57:45Z</time>
      </trkpt>
      <trkpt lat="44.31752" lon="4.75719">
        <ele>243</ele>
        <time>2013-10-27T08:58:00Z</time>
      </trkpt>
      <trkpt lat="44.31788" lon="4.75871">
        <ele>229</ele>
        <time>2013-10-27T08:58:56Z</time>
      </trkpt>
      <trkpt lat="44.3182" lon="4.75893">
        <ele>232</ele>
        <time>2013-10-27T08:59:12Z</time>
      </trkpt>
      <trkpt lat="44.31855" lon="4.75961">
        <ele>241</ele>
        <time>2013-10-27T08:59:39Z</time>
      </trkpt>
      <trkpt lat="44.31816" lon="4.75996">
        <ele>230</ele>
        <time>2013-10-27T08:59:52Z</time>
      </trkpt>
      <trkpt lat="44.31737" lon="4.76">
        <ele>215</ele>
        <time>2013-10-27T09:00:36Z</time>
      </trkpt>
      <trkpt lat="44.31705" lon="4.76043">
        <ele>223</ele>
        <time>2013-10-27T09:00:47Z</time>
      </trkpt>
      <trkpt lat="44.31664" lon="4.76054">
        <ele>218</ele>
        <time>2013-10-27T09:01:06Z</time>
      </trkpt>
      <trkpt lat="44.31651" lon="4.76073">
        <ele>221</ele>
        <time>2013-10-27T09:01:14Z</time>
      </trkpt>
      <trkpt lat="44.3169" lon="4.76092">
        <ele>231</ele>
        <time>2013-10-27T09:01:31Z</time>
      </trkpt>
      <trkpt lat="44.31733" lon="4.76062">
        <ele>228</ele>
        <time>2013-10-27T09:01:51Z</time>
      </trkpt>
      <trkpt lat="44.31739" lon="4.76073">
        <ele>231</ele>
        <time>2013-10-27T09:01:57Z</time>
      </trkpt>
      <trkpt lat="44.31692" lon="4.76103">
        <ele>231</ele>
        <time>2013-10-27T09:02:15Z</time>
      </trkpt>
      <trkpt lat="44.3163" lon="4.76101">
        <ele>224</ele>
        <time>2013-10-27T09:02:29Z</time>
      </trkpt>
      <trkpt lat="44.31569" lon="4.76056">
        <ele>215</ele>
        <time>2013-10-27T09:02:49Z</time>
      </trkpt>
      <trkpt lat="44.31413" lon="4.76049">
        <ele>214</ele>
        <time>2013-10-27T09:03:27Z</time>
      </trkpt>
      <trkpt lat="44.31389" lon="4.76036">
        <ele>212</ele>
        <time>2013-10-27T09:03:31Z</time>
      </trkpt>
      <trkpt lat="44.31376" lon="4.76041">
        <ele>212</ele>
        <time>2013-10-27T09:03:34Z</time>
      </trkpt>
      <trkpt lat="44.31383" lon="4.76062">
        <ele>213</ele>
        <time>2013-10-27T09:03:40Z</time>
      </trkpt>
      <trkpt lat="44.3134" lon="4.76099">
        <ele>211</ele>
        <time>2013-10-27T09:03:51Z</time>
      </trkpt>
      <trkpt lat="44.31198" lon="4.76152">
        <ele>192</ele>
        <time>2013-10-27T09:04:28Z</time>
      </trkpt>
      <trkpt lat="44.31194" lon="4.76174">
        <ele>191</ele>
        <time>2013-10-27T09:04:52Z</time>
      </trkpt>
      <trkpt lat="44.31275" lon="4.76234">
        <ele>199</ele>
        <time>2013-10-27T09:05:21Z</time>
      </trkpt>
      <trkpt lat="44.31278" lon="4.76195">
        <ele>200</ele>
        <time>2013-10-27T09:05:36Z</time>
      </trkpt>
      <trkpt lat="44.31314" lon="4.76146">
        <ele>204</ele>
        <time>2013-10-27T09:05:56Z</time>
      </trkpt>
      <trkpt lat="44.31363" lon="4.7615">
        <ele>211</ele>
        <time>2013-10-27T09:06:19Z</time>
      </trkpt>
      <trkpt lat="44.31413" lon="4.76195">
        <ele>207</ele>
        <time>2013-10-27T09:07:47Z</time>
      </trkpt>
      <trkpt lat="44.31449" lon="4.76187">
        <ele>210</ele>
        <time>2013-10-27T09:08:28Z</time>
      </trkpt>
      <trkpt lat="44.31501" lon="4.76137">
        <ele>219</ele>
        <time>2013-10-27T09:08:56Z</time>
      </trkpt>
      <trkpt lat="44.3155" lon="4.76124">
        <ele>220</ele>
        <time>2013-10-27T09:09:28Z</time>
      </trkpt>
      <trkpt lat="44.31559" lon="4.76161">
        <ele>220</ele>
        <time>2013-10-27T09:22:29Z</time>
      </trkpt>
      <trkpt lat="44.31599" lon="4.76199">
        <ele>217</ele>
        <time>2013-10-27T09:22:46Z</time>
      </trkpt>
      <trkpt lat="44.31627" lon="4.76118">
        <ele>224</ele>
        <time>2013-10-27T09:23:46Z</time>
      </trkpt>
      <trkpt lat="44.3166" lon="4.76152">
        <ele>225</ele>
        <time>2013-10-27T09:24:00Z</time>
      </trkpt>
      <trkpt lat="44.31662" lon="4.76208">
        <ele>219</ele>
        <time>2013-10-27T09:24:30Z</time>
      </trkpt>
      <trkpt lat="44.31707" lon="4.76217">
        <ele>224</ele>
        <time>2013-10-27T09:25:05Z</time>
      </trkpt>
      <trkpt lat="44.31722" lon="4.76238">
        <ele>223</ele>
        <time>2013-10-27T09:25:19Z</time>
      </trkpt>
      <trkpt lat="44.31752" lon="4.7624">
        <ele>225</ele>
        <time>2013-10-27T09:25:35Z</time>
      </trkpt>
      <trkpt lat="44.3179" lon="4.76189">
        <ele>232</ele>
        <time>2013-10-27T09:26:11Z</time>
      </trkpt>
      <trkpt lat="44.31848" lon="4.76214">
        <ele>240</ele>
        <time>2013-10-27T09:26:37Z</time>
      </trkpt>
      <trkpt lat="44.319" lon="4.76309">
        <ele>227</ele>
        <time>2013-10-27T09:27:00Z</time>
      </trkpt>
      <trkpt lat="44.32014" lon="4.76423">
        <ele>230</ele>
        <time>2013-10-27T09:27:45Z</time>
      </trkpt>
      <trkpt lat="44.32052" lon="4.76508">
        <ele>228</ele>
        <time>2013-10-27T09:28:05Z</time>
      </trkpt>
      <trkpt lat="44.32059" lon="4.76532">
        <ele>229</ele>
        <time>2013-10-27T09:28:10Z</time>
      </trkpt>
      <trkpt lat="44.31992" lon="4.76663">
        <ele>225</ele>
        <time>2013-10-27T09:29:05Z</time>
      </trkpt>
      <trkpt lat="44.31988" lon="4.76706">
        <ele>224</ele>
        <time>2013-10-27T09:29:11Z</time>
      </trkpt>
      <trkpt lat="44.32022" lon="4.76847">
        <ele>242</ele>
        <time>2013-10-27T09:29:37Z</time>
      </trkpt>
      <trkpt lat="44.31986" lon="4.76884">
        <ele>233</ele>
        <time>2013-10-27T09:29:48Z</time>
      </trkpt>
      <trkpt lat="44.31934" lon="4.76884">
        <ele>229</ele>
        <time>2013-10-27T09:30:00Z</time>
      </trkpt>
      <trkpt lat="44.31898" lon="4.76905">
        <ele>221</ele>
        <time>2013-10-27T09:30:11Z</time>
      </trkpt>
      <trkpt lat="44.31838" lon="4.7703">
        <ele>251</ele>
        <time>2013-10-27T09:31:09Z</time>
      </trkpt>
      <trkpt lat="44.31814" lon="4.77053">
        <ele>249</ele>
        <time>2013-10-27T09:31:30Z</time>
      </trkpt>
      <trkpt lat="44.31778" lon="4.77058">
        <ele>248</ele>
        <time>2013-10-27T09:31:50Z</time>
      </trkpt>
      <trkpt lat="44.31769" lon="4.77073">
        <ele>249</ele>
        <time>2013-10-27T09:31:59Z</time>
      </trkpt>
      <trkpt lat="44.31752" lon="4.77064">
        <ele>249</ele>
        <time>2013-10-27T09:32:05Z</time>
      </trkpt>
      <trkpt lat="44.31675" lon="4.77068">
        <ele>251</ele>
        <time>2013-10-27T09:32:36Z</time>
      </trkpt>
      <trkpt lat="44.31608" lon="4.77096">
        <ele>251</ele>
        <time>2013-10-27T09:33:11Z</time>
      </trkpt>
      <trkpt lat="44.3169" lon="4.77227">
        <ele>255</ele>
        <time>2013-10-27T09:33:50Z</time>
      </trkpt>
      <trkpt lat="44.31717" lon="4.77352">
        <ele>253</ele>
        <time>2013-10-27T09:34:13Z</time>
      </trkpt>
      <trkpt lat="44.31709" lon="4.77384">
        <ele>253</ele>
        <time>2013-10-27T09:34:17Z</time>
      </trkpt>
      <trkpt lat="44.31683" lon="4.77403">
        <ele>252</ele>
        <time>2013-10-27T09:34:22Z</time>
      </trkpt>
      <trkpt lat="44.31638" lon="4.77483">
        <ele>245</ele>
        <time>2013-10-27T09:34:35Z</time>
      </trkpt>
      <trkpt lat="44.3163" lon="4.77562">
        <ele>244</ele>
        <time>2013-10-27T09:34:50Z</time>
      </trkpt>
      <trkpt lat="44.31591" lon="4.77566">
        <ele>239</ele>
        <time>2013-10-27T09:35:06Z</time>
      </trkpt>
      <trkpt lat="44.31625" lon="4.77648">
        <ele>233</ele>
        <time>2013-10-27T09:37:30Z</time>
      </trkpt>
      <trkpt lat="44.31625" lon="4.7768">
        <ele>221</ele>
        <time>2013-10-27T09:37:39Z</time>
      </trkpt>
      <trkpt lat="44.31728" lon="4.77807">
        <ele>229</ele>
        <time>2013-10-27T09:38:54Z</time>
      </trkpt>
      <trkpt lat="44.3181" lon="4.77944">
        <ele>225</ele>
        <time>2013-10-27T09:39:34Z</time>
      </trkpt>
      <trkpt lat="44.317" lon="4.77959">
        <ele>214</ele>
        <time>2013-10-27T09:40:08Z</time>
      </trkpt>
      <trkpt lat="44.31681" lon="4.78008">
        <ele>209</ele>
        <time>2013-10-27T09:40:25Z</time>
      </trkpt>
      <trkpt lat="44.31687" lon="4.78025">
        <ele>210</ele>
        <time>2013-10-27T09:40:29Z</time>
      </trkpt>
      <trkpt lat="44.31707" lon="4.78028">
        <ele>211</ele>
        <time>2013-10-27T09:40:37Z</time>
      </trkpt>
      <trkpt lat="44.31752" lon="4.78013">
        <ele>219</ele>
        <time>2013-10-27T09:41:09Z</time>
      </trkpt>
      <trkpt lat="44.31778" lon="4.78049">
        <ele>219</ele>
        <time>2013-10-27T09:41:37Z</time>
      </trkpt>
      <trkpt lat="44.31803" lon="4.78023">
        <ele>221</ele>
        <time>2013-10-27T09:41:53Z</time>
      </trkpt>
      <trkpt lat="44.31833" lon="4.78041">
        <ele>222</ele>
        <time>2013-10-27T09:42:19Z</time>
      </trkpt>
      <trkpt lat="44.31848" lon="4.78034">
        <ele>227</ele>
        <time>2013-10-27T09:42:29Z</time>
      </trkpt>
      <trkpt lat="44.31908" lon="4.77965">
        <ele>231</ele>
        <time>2013-10-27T09:43:01Z</time>
      </trkpt>
      <trkpt lat="44.31863" lon="4.77873">
        <ele>234</ele>
        <time>2013-10-27T09:43:38Z</time>
      </trkpt>
      <trkpt lat="44.31842" lon="4.77751">
        <ele>242</ele>
        <time>2013-10-27T09:44:14Z</time>
      </trkpt>
      <trkpt lat="44.31861" lon="4.77697">
        <ele>247</ele>
        <time>2013-10-27T09:44:35Z</time>
      </trkpt>
      <trkpt lat="44.31795" lon="4.77491">
        <ele>260</ele>
        <time>2013-10-27T09:46:09Z</time>
      </trkpt>
      <trkpt lat="44.31851" lon="4.7747">
        <ele>262</ele>
        <time>2013-10-27T09:51:54Z</time>
      </trkpt>
      <trkpt lat="44.31881" lon="4.77495">
        <ele>262</ele>
        <time>2013-10-27T09:52:05Z</time>
      </trkpt>
      <trkpt lat="44.31949" lon="4.77511">
        <ele>261</ele>
        <time>2013-10-27T09:52:32Z</time>
      </trkpt>
      <trkpt lat="44.31956" lon="4.77551">
        <ele>260</ele>
        <time>2013-10-27T09:52:44Z</time>
      </trkpt>
      <trkpt lat="44.31904" lon="4.77676">
        <ele>250</ele>
        <time>2013-10-27T09:53:23Z</time>
      </trkpt>
      <trkpt lat="44.31911" lon="4.77699">
        <ele>249</ele>
        <time>2013-10-27T09:53:27Z</time>
      </trkpt>
      <trkpt lat="44.3199" lon="4.7783">
        <ele>244</ele>
        <time>2013-10-27T09:53:50Z</time>
      </trkpt>
      <trkpt lat="44.32011" lon="4.77888">
        <ele>239</ele>
        <time>2013-10-27T09:53:59Z</time>
      </trkpt>
      <trkpt lat="44.32042" lon="4.77914">
        <ele>238</ele>
        <time>2013-10-27T09:54:05Z</time>
      </trkpt>
      <trkpt lat="44.32035" lon="4.7783">
        <ele>246</ele>
        <time>2013-10-27T09:54:43Z</time>
      </trkpt>
      <trkpt lat="44.32052" lon="4.77781">
        <ele>248</ele>
        <time>2013-10-27T09:55:08Z</time>
      </trkpt>
      <trkpt lat="44.32022" lon="4.77637">
        <ele>256</ele>
        <time>2013-10-27T09:56:00Z</time>
      </trkpt>
      <trkpt lat="44.32024" lon="4.77571">
        <ele>259</ele>
        <time>2013-10-27T09:56:25Z</time>
      </trkpt>
      <trkpt lat="44.32035" lon="4.77523">
        <ele>260</ele>
        <time>2013-10-27T09:56:39Z</time>
      </trkpt>
      <trkpt lat="44.32121" lon="4.77506">
        <ele>260</ele>
        <time>2013-10-27T09:57:13Z</time>
      </trkpt>
      <trkpt lat="44.32129" lon="4.77489">
        <ele>263</ele>
        <time>2013-10-27T09:57:18Z</time>
      </trkpt>
      <trkpt lat="44.32151" lon="4.77343">
        <ele>270</ele>
        <time>2013-10-27T09:58:01Z</time>
      </trkpt>
      <trkpt lat="44.32117" lon="4.7712">
        <ele>275</ele>
        <time>2013-10-27T09:58:46Z</time>
      </trkpt>
      <trkpt lat="44.32145" lon="4.77068">
        <ele>274</ele>
        <time>2013-10-27T09:58:54Z</time>
      </trkpt>
      <trkpt lat="44.3214" lon="4.76888">
        <ele>261</ele>
        <time>2013-10-27T09:59:16Z</time>
      </trkpt>
      <trkpt lat="44.32076" lon="4.7671">
        <ele>250</ele>
        <time>2013-10-27T09:59:48Z</time>
      </trkpt>
      <trkpt lat="44.32127" lon="4.76577">
        <ele>249</ele>
        <time>2013-10-27T10:00:14Z</time>
      </trkpt>
      <trkpt lat="44.32123" lon="4.76543">
        <ele>249</ele>
        <time>2013-10-27T10:00:22Z</time>
      </trkpt>
      <trkpt lat="44.32031" lon="4.76386">
        <ele>250</ele>
        <time>2013-10-27T10:00:50Z</time>
      </trkpt>
      <trkpt lat="44.31971" lon="4.76328">
        <ele>250</ele>
        <time>2013-10-27T10:01:05Z</time>
      </trkpt>
      <trkpt lat="44.31947" lon="4.76279">
        <ele>250</ele>
        <time>2013-10-27T10:01:14Z</time>
      </trkpt>
      <trkpt lat="44.31829" lon="4.76169">
        <ele>238</ele>
        <time>2013-10-27T10:01:37Z</time>
      </trkpt>
      <trkpt lat="44.31816" lon="4.76077">
        <ele>239</ele>
        <time>2013-10-27T10:01:51Z</time>
      </trkpt>
      <trkpt lat="44.31917" lon="4.76026">
        <ele>256</ele>
        <time>2013-10-27T10:02:38Z</time>
      </trkpt>
      <trkpt lat="44.31996" lon="4.76036">
        <ele>261</ele>
        <time>2013-10-27T10:03:03Z</time>
      </trkpt>
      <trkpt lat="44.32016" lon="4.76056">
        <ele>269</ele>
        <time>2013-10-27T10:03:12Z</time>
      </trkpt>
      <trkpt lat="44.32052" lon="4.76056">
        <ele>271</ele>
        <time>2013-10-27T10:03:57Z</time>
      </trkpt>
      <trkpt lat="44.32072" lon="4.76075">
        <ele>274</ele>
        <time>2013-10-27T10:04:24Z</time>
      </trkpt>
      <trkpt lat="44.32097" lon="4.76036">
        <ele>279</ele>
        <time>2013-10-27T10:05:11Z</time>
      </trkpt>
      <trkpt lat="44.32063" lon="4.76111">
        <ele>277</ele>
        <time>2013-10-27T10:09:57Z</time>
      </trkpt>
      <trkpt lat="44.32031" lon="4.76146">
        <ele>277</ele>
        <time>2013-10-27T10:10:35Z</time>
      </trkpt>
      <trkpt lat="44.31979" lon="4.76122">
        <ele>268</ele>
        <time>2013-10-27T10:11:05Z</time>
      </trkpt>
      <trkpt lat="44.31962" lon="4.76126">
        <ele>267</ele>
        <time>2013-10-27T10:11:21Z</time>
      </trkpt>
      <trkpt lat="44.32001" lon="4.76212">
        <ele>277</ele>
        <time>2013-10-27T10:11:53Z</time>
      </trkpt>
      <trkpt lat="44.32069" lon="4.76294">
        <ele>274</ele>
        <time>2013-10-27T10:12:30Z</time>
      </trkpt>
      <trkpt lat="44.32099" lon="4.76309">
        <ele>285</ele>
        <time>2013-10-27T10:12:47Z</time>
      </trkpt>
      <trkpt lat="44.3219" lon="4.76429">
        <ele>280</ele>
        <time>2013-10-27T10:13:22Z</time>
      </trkpt>
      <trkpt lat="44.32267" lon="4.76491">
        <ele>284</ele>
        <time>2013-10-27T10:13:46Z</time>
      </trkpt>
      <trkpt lat="44.32293" lon="4.765">
        <ele>286</ele>
        <time>2013-10-27T10:13:51Z</time>
      </trkpt>
      <trkpt lat="44.32374" lon="4.76466">
        <ele>288</ele>
        <time>2013-10-27T10:14:23Z</time>
      </trkpt>
      <trkpt lat="44.32391" lon="4.76365">
        <ele>295</ele>
        <time>2013-10-27T10:15:00Z</time>
      </trkpt>
      <trkpt lat="44.32361" lon="4.76352">
        <ele>297</ele>
        <time>2013-10-27T10:15:17Z</time>
      </trkpt>
      <trkpt lat="44.32325" lon="4.763">
        <ele>304</ele>
        <time>2013-10-27T10:15:41Z</time>
      </trkpt>
      <trkpt lat="44.3228" lon="4.76279">
        <ele>306</ele>
        <time>2013-10-27T10:16:00Z</time>
      </trkpt>
      <trkpt lat="44.32265" lon="4.76255">
        <ele>308</ele>
        <time>2013-10-27T10:16:12Z</time>
      </trkpt>
      <trkpt lat="44.32293" lon="4.76197">
        <ele>307</ele>
        <time>2013-10-27T10:17:18Z</time>
      </trkpt>
      <trkpt lat="44.3232" lon="4.76182">
        <ele>306</ele>
        <time>2013-10-27T10:17:54Z</time>
      </trkpt>
      <trkpt lat="44.32333" lon="4.76204">
        <ele>306</ele>
        <time>2013-10-27T10:18:01Z</time>
      </trkpt>
      <trkpt lat="44.3235" lon="4.76189">
        <ele>300</ele>
        <time>2013-10-27T10:18:06Z</time>
      </trkpt>
      <trkpt lat="44.3234" lon="4.76135">
        <ele>292</ele>
        <time>2013-10-27T10:18:21Z</time>
      </trkpt>
      <trkpt lat="44.32258" lon="4.76116">
        <ele>296</ele>
        <time>2013-10-27T10:18:44Z</time>
      </trkpt>
      <trkpt lat="44.32211" lon="4.76056">
        <ele>282</ele>
        <time>2013-10-27T10:19:04Z</time>
      </trkpt>
      <trkpt lat="44.32145" lon="4.76015">
        <ele>280</ele>
        <time>2013-10-27T10:19:22Z</time>
      </trkpt>
      <trkpt lat="44.32106" lon="4.75953">
        <ele>273</ele>
        <time>2013-10-27T10:19:44Z</time>
      </trkpt>
      <trkpt lat="44.32087" lon="4.75959">
        <ele>273</ele>
        <time>2013-10-27T10:19:51Z</time>
      </trkpt>
      <trkpt lat="44.32087" lon="4.76023">
        <ele>278</ele>
        <time>2013-10-27T10:20:11Z</time>
      </trkpt>
      <trkpt lat="44.32072" lon="4.76021">
        <ele>272</ele>
        <time>2013-10-27T10:20:15Z</time>
      </trkpt>
      <trkpt lat="44.32014" lon="4.75848">
        <ele>262</ele>
        <time>2013-10-27T10:20:42Z</time>
      </trkpt>
      <trkpt lat="44.32052" lon="4.75835">
        <ele>262</ele>
        <time>2013-10-27T10:21:13Z</time>
      </trkpt>
      <trkpt lat="44.32147" lon="4.7589">
        <ele>260</ele>
        <time>2013-10-27T10:21:38Z</time>
      </trkpt>
      <trkpt lat="44.32275" lon="4.76036">
        <ele>272</ele>
        <time>2013-10-27T10:22:23Z</time>
      </trkpt>
      <trkpt lat="44.32333" lon="4.76056">
        <ele>274</ele>
        <time>2013-10-27T10:22:54Z</time>
      </trkpt>
      <trkpt lat="44.32456" lon="4.76041">
        <ele>269</ele>
        <time>2013-10-27T10:23:50Z</time>
      </trkpt>
      <trkpt lat="44.32484" lon="4.76075">
        <ele>273</ele>
        <time>2013-10-27T10:24:07Z</time>
      </trkpt>
      <trkpt lat="44.32481" lon="4.76118">
        <ele>281</ele>
        <time>2013-10-27T10:24:29Z</time>
      </trkpt>
      <trkpt lat="44.32518" lon="4.76161">
        <ele>276</ele>
        <time>2013-10-27T10:24:53Z</time>
      </trkpt>
      <trkpt lat="44.32529" lon="4.76137">
        <ele>273</ele>
        <time>2013-10-27T10:26:02Z</time>
      </trkpt>
      <trkpt lat="44.3258" lon="4.76182">
        <ele>272</ele>
        <time>2013-10-27T10:26:27Z</time>
      </trkpt>
      <trkpt lat="44.32488" lon="4.76146">
        <ele>282</ele>
        <time>2013-10-27T10:32:50Z</time>
      </trkpt>
      <trkpt lat="44.32569" lon="4.76212">
        <ele>276</ele>
        <time>2013-10-27T10:34:10Z</time>
      </trkpt>
      <trkpt lat="44.32602" lon="4.76305">
        <ele>274</ele>
        <time>2013-10-27T10:34:38Z</time>
      </trkpt>
      <trkpt lat="44.32668" lon="4.76345">
        <ele>277</ele>
        <time>2013-10-27T10:34:53Z</time>
      </trkpt>
      <trkpt lat="44.32801" lon="4.7636">
        <ele>271</ele>
        <time>2013-10-27T10:35:16Z</time>
      </trkpt>
      <trkpt lat="44.32878" lon="4.76414">
        <ele>265</ele>
        <time>2013-10-27T10:35:33Z</time>
      </trkpt>
      <trkpt lat="44.32941" lon="4.76433">
        <ele>266</ele>
        <time>2013-10-27T10:35:45Z</time>
      </trkpt>
      <trkpt lat="44.32936" lon="4.76491">
        <ele>268</ele>
        <time>2013-10-27T10:36:05Z</time>
      </trkpt>
      <trkpt lat="44.32986" lon="4.76508">
        <ele>273</ele>
        <time>2013-10-27T10:36:18Z</time>
      </trkpt>
      <trkpt lat="44.33014" lon="4.76491">
        <ele>271</ele>
        <time>2013-10-27T10:36:27Z</time>
      </trkpt>
      <trkpt lat="44.33014" lon="4.76545">
        <ele>274</ele>
        <time>2013-10-27T10:36:36Z</time>
      </trkpt>
      <trkpt lat="44.3311" lon="4.76639">
        <ele>269</ele>
        <time>2013-10-27T10:36:57Z</time>
      </trkpt>
      <trkpt lat="44.33172" lon="4.76644">
        <ele>266</ele>
        <time>2013-10-27T10:37:11Z</time>
      </trkpt>
      <trkpt lat="44.33224" lon="4.76549">
        <ele>265</ele>
        <time>2013-10-27T10:37:27Z</time>
      </trkpt>
      <trkpt lat="44.3326" lon="4.76629">
        <ele>264</ele>
        <time>2013-10-27T10:37:59Z</time>
      </trkpt>
      <trkpt lat="44.3328" lon="4.76614">
        <ele>263</ele>
        <time>2013-10-27T10:38:34Z</time>
      </trkpt>
      <trkpt lat="44.33316" lon="4.76616">
        <ele>261</ele>
        <time>2013-10-27T10:38:49Z</time>
      </trkpt>
      <trkpt lat="44.33387" lon="4.76663">
        <ele>256</ele>
        <time>2013-10-27T10:39:11Z</time>
      </trkpt>
      <trkpt lat="44.33316" lon="4.76487">
        <ele>230</ele>
        <time>2013-10-27T10:39:56Z</time>
      </trkpt>
      <trkpt lat="44.3332" lon="4.76474">
        <ele>229</ele>
        <time>2013-10-27T10:40:09Z</time>
      </trkpt>
      <trkpt lat="44.33365" lon="4.76468">
        <ele>205</ele>
        <time>2013-10-27T10:40:19Z</time>
      </trkpt>
      <trkpt lat="44.33413" lon="4.76485">
        <ele>202</ele>
        <time>2013-10-27T10:40:32Z</time>
      </trkpt>
      <trkpt lat="44.33496" lon="4.76491">
        <ele>183</ele>
        <time>2013-10-27T10:40:47Z</time>
      </trkpt>
      <trkpt lat="44.3352" lon="4.76478">
        <ele>171</ele>
        <time>2013-10-27T10:40:52Z</time>
      </trkpt>
      <trkpt lat="44.33541" lon="4.76435">
        <ele>164</ele>
        <time>2013-10-27T10:41:04Z</time>
      </trkpt>
      <trkpt lat="44.33529" lon="4.76403">
        <ele>155</ele>
        <time>2013-10-27T10:41:17Z</time>
      </trkpt>
      <trkpt lat="44.33507" lon="4.76399">
        <ele>157</ele>
        <time>2013-10-27T10:41:25Z</time>
      </trkpt>
      <trkpt lat="44.33421" lon="4.76307">
        <ele>159</ele>
        <time>2013-10-27T10:42:03Z</time>
      </trkpt>
      <trkpt lat="44.33368" lon="4.76167">
        <ele>155</ele>
        <time>2013-10-27T10:42:33Z</time>
      </trkpt>
      <trkpt lat="44.33305" lon="4.76109">
        <ele>156</ele>
        <time>2013-10-27T10:42:55Z</time>
      </trkpt>
      <trkpt lat="44.33117" lon="4.76075">
        <ele>157</ele>
        <time>2013-10-27T10:43:50Z</time>
      </trkpt>
      <trkpt lat="44.33063" lon="4.76099">
        <ele>171</ele>
        <time>2013-10-27T10:44:06Z</time>
      </trkpt>
      <trkpt lat="44.33007" lon="4.76045">
        <ele>163</ele>
        <time>2013-10-27T10:44:27Z</time>
      </trkpt>
      <trkpt lat="44.32861" lon="4.76034">
        <ele>182</ele>
        <time>2013-10-27T10:46:07Z</time>
      </trkpt>
      <trkpt lat="44.32883" lon="4.76008">
        <ele>178</ele>
        <time>2013-10-27T10:46:16Z</time>
      </trkpt>
      <trkpt lat="44.32846" lon="4.76008">
        <ele>177</ele>
        <time>2013-10-27T10:46:29Z</time>
      </trkpt>
      <trkpt lat="44.32816" lon="4.75957">
        <ele>177</ele>
        <time>2013-10-27T10:46:46Z</time>
      </trkpt>
      <trkpt lat="44.32816" lon="4.75916">
        <ele>171</ele>
        <time>2013-10-27T10:47:01Z</time>
      </trkpt>
      <trkpt lat="44.32876" lon="4.75809">
        <ele>152</ele>
        <time>2013-10-27T10:47:16Z</time>
      </trkpt>
      <trkpt lat="44.32906" lon="4.75723">
        <ele>142</ele>
        <time>2013-10-27T10:47:24Z</time>
      </trkpt>
      <trkpt lat="44.32904" lon="4.75699">
        <ele>141</ele>
        <time>2013-10-27T10:47:28Z</time>
      </trkpt>
      <trkpt lat="44.32784" lon="4.75579">
        <ele>143</ele>
        <time>2013-10-27T10:48:24Z</time>
      </trkpt>
      <trkpt lat="44.32692" lon="4.75562">
        <ele>149</ele>
        <time>2013-10-27T10:49:02Z</time>
      </trkpt>
      <trkpt lat="44.32606" lon="4.75566">
        <ele>154</ele>
        <time>2013-10-27T10:49:35Z</time>
      </trkpt>
      <trkpt lat="44.32599" lon="4.75551">
        <ele>153</ele>
        <time>2013-10-27T10:49:42Z</time>
      </trkpt>
      <trkpt lat="44.32524" lon="4.75539">
        <ele>157</ele>
        <time>2013-10-27T10:50:09Z</time>
      </trkpt>
      <trkpt lat="44.32484" lon="4.75511">
        <ele>155</ele>
        <time>2013-10-27T10:52:24Z</time>
      </trkpt>
      <trkpt lat="44.32436" lon="4.75517">
        <ele>153</ele>
        <time>2013-10-27T10:52:35Z</time>
      </trkpt>
      <trkpt lat="44.32419" lon="4.75545">
        <ele>154</ele>
        <time>2013-10-27T10:52:40Z</time>
      </trkpt>
      <trkpt lat="44.32421" lon="4.75706">
        <ele>172</ele>
        <time>2013-10-27T10:53:26Z</time>
      </trkpt>
      <trkpt lat="44.32393" lon="4.75755">
        <ele>180</ele>
        <time>2013-10-27T10:53:49Z</time>
      </trkpt>
      <trkpt lat="44.32335" lon="4.75809">
        <ele>188</ele>
        <time>2013-10-27T10:54:58Z</time>
      </trkpt>
      <trkpt lat="44.32308" lon="4.75753">
        <ele>190</ele>
        <time>2013-10-27T10:56:19Z</time>
      </trkpt>
      <trkpt lat="44.3225" lon="4.75712">
        <ele>197</ele>
        <time>2013-10-27T10:57:03Z</time>
      </trkpt>
      <trkpt lat="44.32217" lon="4.75618">
        <ele>177</ele>
        <time>2013-10-27T10:59:33Z</time>
      </trkpt>
      <trkpt lat="44.32181" lon="4.75603">
        <ele>178</ele>
        <time>2013-10-27T11:00:00Z</time>
      </trkpt>
      <trkpt lat="44.32106" lon="4.75607">
        <ele>179</ele>
        <time>2013-10-27T11:00:34Z</time>
      </trkpt>
      <trkpt lat="44.32044" lon="4.75543">
        <ele>167</ele>
        <time>2013-10-27T11:01:27Z</time>
      </trkpt>
      <trkpt lat="44.32029" lon="4.755">
        <ele>155</ele>
        <time>2013-10-27T11:01:56Z</time>
      </trkpt>
      <trkpt lat="44.31979" lon="4.75455">
        <ele>161</ele>
        <time>2013-10-27T11:02:20Z</time>
      </trkpt>
      <trkpt lat="44.31926" lon="4.75433">
        <ele>159</ele>
        <time>2013-10-27T11:02:43Z</time>
      </trkpt>
      <trkpt lat="44.3187" lon="4.75461">
        <ele>168</ele>
        <time>2013-10-27T11:03:13Z</time>
      </trkpt>
      <trkpt lat="44.31857" lon="4.75448">
        <ele>167</ele>
        <time>2013-10-27T11:03:26Z</time>
      </trkpt>
      <trkpt lat="44.31838" lon="4.75455">
        <ele>168</ele>
        <time>2013-10-27T11:03:46Z</time>
      </trkpt>
      <trkpt lat="44.31797" lon="4.75418">
        <ele>169</ele>
        <time>2013-10-27T11:04:07Z</time>
      </trkpt>
      <trkpt lat="44.31754" lon="4.7544">
        <ele>171</ele>
        <time>2013-10-27T11:04:26Z</time>
      </trkpt>
      <trkpt lat="44.31702" lon="4.75401">
        <ele>160</ele>
        <time>2013-10-27T11:04:47Z</time>
      </trkpt>
      <trkpt lat="44.31657" lon="4.75421">
        <ele>174</ele>
        <time>2013-10-27T11:05:16Z</time>
      </trkpt>
      <trkpt lat="44.3155" lon="4.75509">
        <ele>191</ele>
        <time>2013-10-27T11:06:34Z</time>
      </trkpt>
      <trkpt lat="44.31492" lon="4.7553">
        <ele>181</ele>
        <time>2013-10-27T11:06:57Z</time>
      </trkpt>
      <trkpt lat="44.31494" lon="4.75551">
        <ele>182</ele>
        <time>2013-10-27T11:07:03Z</time>
      </trkpt>
      <trkpt lat="44.31574" lon="4.75607">
        <ele>194</ele>
        <time>2013-10-27T11:07:37Z</time>
      </trkpt>
      <trkpt lat="44.31591" lon="4.75699">
        <ele>197</ele>
        <time>2013-10-27T11:08:04Z</time>
      </trkpt>
      <trkpt lat="44.31621" lon="4.7574">
        <ele>197</ele>
        <time>2013-10-27T11:08:20Z</time>
      </trkpt>
      <trkpt lat="44.31606" lon="4.75762">
        <ele>184</ele>
        <time>2013-10-27T11:08:31Z</time>
      </trkpt>
      <trkpt lat="44.31651" lon="4.75835">
        <ele>184</ele>
        <time>2013-10-27T11:08:53Z</time>
      </trkpt>
      <trkpt lat="44.31636" lon="4.75905">
        <ele>180</ele>
        <time>2013-10-27T11:09:29Z</time>
      </trkpt>
      <trkpt lat="44.31666" lon="4.75923">
        <ele>185</ele>
        <time>2013-10-27T11:10:00Z</time>
      </trkpt>
      <trkpt lat="44.31606" lon="4.75931">
        <ele>186</ele>
        <time>2013-10-27T11:10:29Z</time>
      </trkpt>
      <trkpt lat="44.31499" lon="4.75905">
        <ele>178</ele>
        <time>2013-10-27T11:11:05Z</time>
      </trkpt>
      <trkpt lat="44.31574" lon="4.75968">
        <ele>192</ele>
        <time>2013-10-27T11:15:52Z</time>
      </trkpt>
      <trkpt lat="44.31432" lon="4.75918">
        <ele>192</ele>
        <time>2013-10-27T11:16:42Z</time>
      </trkpt>
      <trkpt lat="44.31366" lon="4.75936">
        <ele>196</ele>
        <time>2013-10-27T11:17:01Z</time>
      </trkpt>
      <trkpt lat="44.3128" lon="4.75888">
        <ele>181</ele>
        <time>2013-10-27T11:17:21Z</time>
      </trkpt>
      <trkpt lat="44.31213" lon="4.75893">
        <ele>181</ele>
        <time>2013-10-27T11:17:39Z</time>
      </trkpt>
      <trkpt lat="44.31177" lon="4.75858">
        <ele>179</ele>
        <time>2013-10-27T11:17:49Z</time>
      </trkpt>
      <trkpt lat="44.31095" lon="4.75845">
        <ele>175</ele>
        <time>2013-10-27T11:18:05Z</time>
      </trkpt>
      <trkpt lat="44.31048" lon="4.75813">
        <ele>167</ele>
        <time>2013-10-27T11:18:16Z</time>
      </trkpt>
      <trkpt lat="44.31016" lon="4.75824">
        <ele>165</ele>
        <time>2013-10-27T11:18:28Z</time>
      </trkpt>
      <trkpt lat="44.30999" lon="4.758">
        <ele>162</ele>
        <time>2013-10-27T11:18:33Z</time>
      </trkpt>
      <trkpt lat="44.30911" lon="4.75755">
        <ele>157</ele>
        <time>2013-10-27T11:18:48Z</time>
      </trkpt>
      <trkpt lat="44.30876" lon="4.75699">
        <ele>153</ele>
        <time>2013-10-27T11:18:57Z</time>
      </trkpt>
      <trkpt lat="44.30808" lon="4.75659">
        <ele>142</ele>
        <time>2013-10-27T11:19:12Z</time>
      </trkpt>
      <trkpt lat="44.30741" lon="4.75657">
        <ele>134</ele>
        <time>2013-10-27T11:19:28Z</time>
      </trkpt>
      <trkpt lat="44.30711" lon="4.75631">
        <ele>127</ele>
        <time>2013-10-27T11:19:35Z</time>
      </trkpt>
      <trkpt lat="44.30688" lon="4.75667">
        <ele>125</ele>
        <time>2013-10-27T11:19:50Z</time>
      </trkpt>
      <trkpt lat="44.30657" lon="4.75661">
        <ele>117</ele>
        <time>2013-10-27T11:20:29Z</time>
      </trkpt>
      <trkpt lat="44.3067" lon="4.75751">
        <ele>118</ele>
        <time>2013-10-27T11:21:00Z</time>
      </trkpt>
      <trkpt lat="44.30662" lon="4.75811">
        <ele>109</ele>
        <time>2013-10-27T11:21:43Z</time>
      </trkpt>
      <trkpt lat="44.30593" lon="4.75837">
        <ele>98</ele>
        <time>2013-10-27T11:22:17Z</time>
      </trkpt>
      <trkpt lat="44.30595" lon="4.75871">
        <ele>100</ele>
        <time>2013-10-27T11:22:27Z</time>
      </trkpt>
      <trkpt lat="44.30625" lon="4.7591">
        <ele>102</ele>
        <time>2013-10-27T11:22:50Z</time>
      </trkpt>
      <trkpt lat="44.3061" lon="4.75978">
        <ele>107</ele>
        <time>2013-10-27T11:23:22Z</time>
      </trkpt>
      <trkpt lat="44.30585" lon="4.76008">
        <ele>108</ele>
        <time>2013-10-27T11:23:39Z</time>
      </trkpt>
      <trkpt lat="44.30593" lon="4.76144">
        <ele>112</ele>
        <time>2013-10-27T11:24:00Z</time>
      </trkpt>
      <trkpt lat="44.30589" lon="4.76161">
        <ele>110</ele>
        <time>2013-10-27T11:24:04Z</time>
      </trkpt>
      <trkpt lat="44.30539" lon="4.76176">
        <ele>98</ele>
        <time>2013-10-27T11:24:13Z</time>
      </trkpt>
      <trkpt lat="44.30518" lon="4.76234">
        <ele>93</ele>
        <time>2013-10-27T11:24:21Z</time>
      </trkpt>
      <trkpt lat="44.30409" lon="4.76296">
        <ele>71</ele>
        <time>2013-10-27T11:24:42Z</time>
      </trkpt>
      <trkpt lat="44.29926" lon="4.7632">
        <ele>65</ele>
        <time>2013-10-27T11:26:04Z</time>
      </trkpt>
      <trkpt lat="44.29921" lon="4.76247">
        <ele>65</ele>
        <time>2013-10-27T11:26:31Z</time>
      </trkpt>
      <trkpt lat="44.29977" lon="4.76062">
        <ele>63</ele>
        <time>2013-10-27T11:27:03Z</time>
      </trkpt>
      <trkpt lat="44.30061" lon="4.75622">
        <ele>63</ele>
        <time>2013-10-27T11:28:16Z</time>
      </trkpt>
      <trkpt lat="44.30093" lon="4.75534">
        <ele>62</ele>
        <time>2013-10-27T11:28:33Z</time>
      </trkpt>
      <trkpt lat="44.30063" lon="4.75365">
        <ele>63</ele>
        <time>2013-10-27T11:29:00Z</time>
      </trkpt>
      <trkpt lat="44.30024" lon="4.75298">
        <ele>63</ele>
        <time>2013-10-27T11:29:18Z</time>
      </trkpt>
      <trkpt lat="44.30007" lon="4.75105">
        <ele>62</ele>
        <time>2013-10-27T11:29:48Z</time>
      </trkpt>
      <trkpt lat="44.29977" lon="4.74989">
        <ele>60</ele>
        <time>2013-10-27T11:30:06Z</time>
      </trkpt>
      <trkpt lat="44.29986" lon="4.74914">
        <ele>62</ele>
        <time>2013-10-27T11:30:18Z</time>
      </trkpt>
      <trkpt lat="44.29904" lon="4.74981">
        <ele>60</ele>
        <time>2013-10-27T11:30:43Z</time>
      </trkpt>
      <trkpt lat="44.29872" lon="4.75045">
        <ele>61</ele>
        <time>2013-10-27T11:30:55Z</time>
      </trkpt>
      <trkpt lat="44.29831" lon="4.75045">
        <ele>63</ele>
        <time>2013-10-27T11:31:04Z</time>
      </trkpt>
      <trkpt lat="44.29567" lon="4.75264">
        <ele>66</ele>
        <time>2013-10-27T11:32:03Z</time>
      </trkpt>
      <trkpt lat="44.29503" lon="4.75298">
        <ele>65</ele>
        <time>2013-10-27T11:32:16Z</time>
      </trkpt>
      <trkpt lat="44.29364" lon="4.75326">
        <ele>64</ele>
        <time>2013-10-27T11:32:43Z</time>
      </trkpt>
      <trkpt lat="44.29325" lon="4.75255">
        <ele>64</ele>
        <time>2013-10-27T11:33:08Z</time>
      </trkpt>
      <trkpt lat="44.29233" lon="4.75264">
        <ele>63</ele>
        <time>2013-10-27T11:33:31Z</time>
      </trkpt>
      <trkpt lat="44.29198" lon="4.75296">
        <ele>63</ele>
        <time>2013-10-27T11:33:48Z</time>
      </trkpt>
    </trkseg>
  </trk>
</gpx>